« 芝山4 成田国際空港 2017/10/26 thu | トップページ | 岐阜基地航空祭2017【B.I.編】 岐阜飛行場 2017/11/19 sun »

2017/11/17

豪雨  成田国際空港 2017/10/29 sat

台風22号の接近している暴風雨の中、何もこんな日にいかなくても状態ですが、雨の中の羽衣を求めて成田へ。今日も北風で、芝山での撮影に挑戦。

RJAA 290330Z 34012KT 3200 R34L/P1800N R34R/P1800N SHRA BR FEW003 BKN004 BKN007 16/15 Q1005 TEMPO 2000 SHRA BR

20171029_rjaa_00n614fe

FDX157 PANC-RJAA N614FE MD-11F

20171029_rjaa_01fojse

ACI801 RJAA-NWWW F-OJSE A330-202

20171029_rjaa_02vtanm

AIC307 RJAA-VIDP VT-ANM B787-8

RJAA 290400Z 34013KT 3000 SHRA BR FEW002 BKN005 BKN007 15/15 Q1004 NOSIG RMK 1ST002 5ST005 6ST007 A2966

20171029_rjaa_03x9vswb

SIA11 KLAX-RJAA 9V-SWB B777-312ER

余りにも風雨がすごいので、雨具を着なおして態勢立て直し。

RJAA 290430Z 32010KT 2600 R34L/P1800N R34R/1000VP1800D +SHRA BR FEW002 BKN005 BKN008 15/15 Q1004 NOSIG

20171029_rjaa_04b6079

CCA925 ZBAA-RJAA B-6079 A330-243

20171029_rjaa_05ja626a

ANA954 ZHHH-RJAA JA626A B767-381ER

20171029_rjaa_06ja862j

JAL408 EDDF-RJAA JA862J B787-9

20171029_rjaa_07b5788

CXA815 ZSAM-RJAA B-5788 B737-85C

20171029_rjaa_08xa6blc

まるで雲の中からボワッと登場

20171029_rjaa_09xa6blc

ETD878 OMAA-RJAA A6-BLC B787-9

20171029_rjaa_10n886fd

FDX72 RJAA-KMEM N886FD B777-FS2

20171029_rjaa_11ja09va

VNL825 RJAA-RJKA JA09VA A320-214

20171029_rjaa_12n886fd

フェデックスは、まるでマントをまとって離陸していった。

20171029_rjaa_13ja04jj

JJP511 RJAA-RJFF JA04JJ A320-232

RJAA 290500Z 32008KT 280V350 7000 -SHRA FEW002 SCT004 BKN006 15/15 Q1003 TEMPO 3000 SHRA BR FEW002 BKN004

20171029_rjaa_14n362up

UPS108 RJAA-ZSPD N362UP B767-34AFER

20171029_rjaa_15gzbkk

BAW6 RJAA-EGLL G-ZBKK B787-9

20171029_rjaa_16rpc9901

PAL427 RJAA-RPLL RP-C9901 A321-231

20171029_rjaa_17n404kz

GTI8372 RJAA-VHHH N404KZ B747-481F

20171029_rjaa_18n225ua

UAL903 PHNL-RJAA N225UA B777-222ER

20171029_rjaa_19b2220

CSE776 RJAA-ZSNJ B-2220 A320-214

20171029_rjaa_20eiisa

AZA785 RJAA-LIRF EI-ISA B777-243ER

20171029_rjaa_21n197dn

DAL166 WSSS-RJAA N192DN B767-332ER

20171029_rjaa_22b16338

EVA197 RJAA-RCTP B-16338 A330-

20171029_rjaa_23ja627a

ANA824 RCTP-RJAA JA627A B767-381ER

20171029_rjaa_24b1528

CCA952 RJAA-ZYTL B-1528 B737-89L

20171029_rjaa_25b8653

CES524 RJAA-ZSPD B-8653 A321-211

20171029_rjaa_26n2332u

ながーく、リボンを引いて・・

20171029_rjaa_27n2332u

20171029_rjaa_28n2332u

UAL837 KSFO-RJAA N2332U B777-322ER

20171029_rjaa_29ja778a

ANA959 RJAA-ZSPD JA778A B777-381ER

RJAA 290530Z 34009KT 310V030 4000 -SHRA BR FEW001 SCT004 BKN006 16/15 Q1001 TEMPO 3000 SHRA BR FEW002 BKN004

20171029_rjaa_30ja807a

ANA820 RPLL-RJAA JA807A B787-8

20171029_rjaa_31ja317j

JAL877 RJAA-ZSPD JA317J B737-846

20171029_rjaa_32n2142u

UAL79 KEWR-RJAA N2142U B777-322ER

20171029_rjaa_33hl8064

JJA1153 RJAA-RKPK HL8064 B737-8AS

20171029_rjaa_34n890fd

FDX169 KMEM-RJAA N890FD B777-FS2

20171029_rjaa_35hl7722

ABL111 RJAA-RKPK HL7722 A321-231

20171029_rjaa_36n155dl

DAL180 RPLL-RJAA N155DL B767-3P6ER

20171029_rjaa_37ja619a

ANA934 ZGGG-RJAA JA619A B767-381ER

20171029_rjaa_38hl7551

KAL002 PHNL-RJAA HL7551 A330-322

20171029_rjaa_39hl7461

KAL704 RJAA-RKSI HL7461 B747-4B5

20171029_rjaa_40n154dl

DAL181 PHNL-RJAA N154DL B767-3P6ER

20171029_rjaa_41ja605f

ANA8513 RJAA-VHHH JA605F B767-316FER

RJAA 290600Z 02007KT 4500 -SHRA BR FEW002 BKN004 BKN007 16/15 Q1000 TEMPO 3000 SHRA BR

20171029_rjaa_42ja784a

ANA9 KJFK-RJAA JA784A B777-381ER

20171029_rjaa_43ja781a

ANA7 KSFO-RJAA JA781A B777-381ER

20171029_rjaa_44hl8294

TWB212 RJAA-RKTN HL8294 B737-8Q8

20171029_rjaa_45n450pa

PAC962 RJAA-PANC N450PA B747-46NF

20171029_rjaa_46ja10va

VNL10VA RJAA-RJAA JA10VA A320-214

成田から北海道を周回して帰ってきた訓練飛行の模様

20171029_rjaa_47n15989

UAL32 KLAX-RJAA N15989 B787-9

20171029_rjaa_48b5788

CXA816 RJAA-ZSAM B-5788 B737-85C

20171029_rjaa_49ja782a

なんがーいリボン

20171029_rjaa_50ja782a

ANA173 KIAH-RJAA JA782A B777-381ER

20171029_rjaa_51ja782a

アプローチ跡に残るリボン

20171029_rjaa_52rpc9914

PAL427 RJAA-RPLL RP-C9914 A321-231

20171029_rjaa_53ja09jj

JJP106 RJCC-RJAA JA09JJ A320-232

20171029_rjaa_54b6533

CCA930 RJAA-ZSPD B-6533 A330-243

20171029_rjaa_55cfcaf

ACA009 CYYC-RJAA C-FCAF B767-375ER

20171029_rjaa_56ja01gr

SJO203 RJAA-RJCC JA01GR B737-81D

20171029_rjaa_57n1611b

DAL69 KPDX-RJAA N1611B B767-332ER

20171029_rjaa_58hl7507

AAR197 RJAA-RKSI HL7507 B767-38EFER

20171029_rjaa_59n74007

UAL7 KIAH-RJAA N74007 B777-224ER

20171029_rjaa_60x9vswb

SIA11 RJAA-WSSS 9V-SWB B777-312ER

RJAA 290630Z 36009KT 330V040 3000 SHRA BR FEW001 BKN005 BKN009 15/15 Q1000 NOSIG RMK 1ST001 5ST005 7ST009 A2953

20171029_rjaa_61ja734a

ANA1 KIAD-RJAA JA734A B777-381ER

20171029_rjaa_62ja731a

ANA11 KORD-RJAA JA731A B777-381ER

20171029_rjaa_63ja805a

ANA171 KSJC-RJAA JA805A B787-8

20171029_rjaa_64b1960

CXA810 RJAA-ZSFZ B-1966 B737-85C

20171029_rjaa_65ja03va

VNL910 RJCC-RJAA JA03VA A320-214

20171029_rjaa_66ja871a

ANA177 KSEA-RJAA JA871A B787-9

RJAA 290649Z 01007KT 350V050 2500 +SHRA BR FEW001 BKN004 BKN008 FEW015CB 16/15 Q0999 RMK 1ST001 5ST004 7ST008 1CB015 A2953 CB 30KM SW MOV NE

デルタを待っているのだが、この日から時間が変り、おまけにディレイとなっているので、仕方なく撤収としました。さぶーい。

|

« 芝山4 成田国際空港 2017/10/26 thu | トップページ | 岐阜基地航空祭2017【B.I.編】 岐阜飛行場 2017/11/19 sun »

成田国際空港」カテゴリの記事

コメント

コメントを書く



(ウェブ上には掲載しません)


コメントは記事投稿者が公開するまで表示されません。



トラックバック


この記事へのトラックバック一覧です: 豪雨  成田国際空港 2017/10/29 sat:

« 芝山4 成田国際空港 2017/10/26 thu | トップページ | 岐阜基地航空祭2017【B.I.編】 岐阜飛行場 2017/11/19 sun »